sensor_id;sensor_type;location;lat;lon;timestamp;P1;durP1;ratioP1;P2;durP2;ratioP2
41667;SDS011;27356;50.920;5.350;2023-06-22T00:00:57;11.45;;;3.45;;
41667;SDS011;27356;50.920;5.350;2023-06-22T00:03:24;14.63;;;3.83;;
41667;SDS011;27356;50.920;5.350;2023-06-22T00:05:51;13.65;;;4.03;;
41667;SDS011;27356;50.920;5.350;2023-06-22T00:08:17;12.10;;;4.07;;
41667;SDS011;27356;50.920;5.350;2023-06-22T00:10:44;10.20;;;3.88;;
41667;SDS011;27356;50.920;5.350;2023-06-22T00:13:11;14.05;;;3.58;;
41667;SDS011;27356;50.920;5.350;2023-06-22T00:15:38;12.68;;;3.60;;
41667;SDS011;27356;50.920;5.350;2023-06-22T00:18:08;20.98;;;4.35;;
41667;SDS011;27356;50.920;5.350;2023-06-22T00:20:35;12.05;;;3.17;;
41667;SDS011;27356;50.920;5.350;2023-06-22T00:23:02;11.35;;;3.03;;
41667;SDS011;27356;50.920;5.350;2023-06-22T00:25:34;8.20;;;3.50;;
41667;SDS011;27356;50.920;5.350;2023-06-22T00:28:01;9.13;;;3.33;;
41667;SDS011;27356;50.920;5.350;2023-06-22T00:30:27;11.02;;;3.47;;
41667;SDS011;27356;50.920;5.350;2023-06-22T00:32:53;13.27;;;3.30;;
41667;SDS011;27356;50.920;5.350;2023-06-22T00:35:19;11.45;;;3.60;;
41667;SDS011;27356;50.920;5.350;2023-06-22T00:37:45;9.40;;;3.10;;
41667;SDS011;27356;50.920;5.350;2023-06-22T00:40:11;10.32;;;3.15;;
41667;SDS011;27356;50.920;5.350;2023-06-22T00:42:37;10.70;;;3.45;;
41667;SDS011;27356;50.920;5.350;2023-06-22T00:45:04;10.25;;;3.40;;
41667;SDS011;27356;50.920;5.350;2023-06-22T00:47:31;13.75;;;4.40;;
41667;SDS011;27356;50.920;5.350;2023-06-22T00:49:57;12.65;;;3.70;;
41667;SDS011;27356;50.920;5.350;2023-06-22T00:52:23;9.10;;;3.85;;
41667;SDS011;27356;50.920;5.350;2023-06-22T00:54:54;14.80;;;3.70;;
41667;SDS011;27356;50.920;5.350;2023-06-22T00:57:21;13.85;;;3.72;;
41667;SDS011;27356;50.920;5.350;2023-06-22T00:59:53;15.32;;;3.50;;
41667;SDS011;27356;50.920;5.350;2023-06-22T01:02:19;10.98;;;3.92;;
41667;SDS011;27356;50.920;5.350;2023-06-22T01:04:45;14.68;;;3.92;;
41667;SDS011;27356;50.920;5.350;2023-06-22T01:12:21;20.00;;;4.82;;
41667;SDS011;27356;50.920;5.350;2023-06-22T01:15:02;20.80;;;4.60;;
41667;SDS011;27356;50.920;5.350;2023-06-22T01:17:34;18.50;;;4.93;;
41667;SDS011;27356;50.920;5.350;2023-06-22T01:20:01;25.33;;;5.18;;
41667;SDS011;27356;50.920;5.350;2023-06-22T01:22:32;21.67;;;5.43;;
41667;SDS011;27356;50.920;5.350;2023-06-22T01:25:20;25.17;;;6.13;;
41667;SDS011;27356;50.920;5.350;2023-06-22T01:27:58;24.98;;;7.15;;
41667;SDS011;27356;50.920;5.350;2023-06-22T01:30:45;28.90;;;7.93;;
41667;SDS011;27356;50.920;5.350;2023-06-22T01:33:14;26.33;;;6.63;;
41667;SDS011;27356;50.920;5.350;2023-06-22T01:35:41;29.27;;;6.95;;
41667;SDS011;27356;50.920;5.350;2023-06-22T01:38:07;27.58;;;6.55;;
41667;SDS011;27356;50.920;5.350;2023-06-22T01:40:34;26.50;;;6.35;;
41667;SDS011;27356;50.920;5.350;2023-06-22T01:43:02;23.50;;;6.32;;
41667;SDS011;27356;50.920;5.350;2023-06-22T01:45:28;23.85;;;5.72;;
41667;SDS011;27356;50.920;5.350;2023-06-22T01:47:55;31.70;;;6.05;;
41667;SDS011;27356;50.920;5.350;2023-06-22T01:50:21;27.27;;;6.95;;
41667;SDS011;27356;50.920;5.350;2023-06-22T01:52:47;23.52;;;5.82;;
41667;SDS011;27356;50.920;5.350;2023-06-22T01:55:13;28.48;;;6.03;;
41667;SDS011;27356;50.920;5.350;2023-06-22T01:57:39;24.08;;;6.38;;
41667;SDS011;27356;50.920;5.350;2023-06-22T02:02:47;30.58;;;5.50;;
41667;SDS011;27356;50.920;5.350;2023-06-22T02:05:22;32.00;;;7.72;;
41667;SDS011;27356;50.920;5.350;2023-06-22T02:08:01;25.92;;;7.28;;
41667;SDS011;27356;50.920;5.350;2023-06-22T02:10:36;27.83;;;6.93;;
41667;SDS011;27356;50.920;5.350;2023-06-22T02:13:04;24.83;;;6.95;;
41667;SDS011;27356;50.920;5.350;2023-06-22T02:15:32;28.33;;;6.22;;
41667;SDS011;27356;50.920;5.350;2023-06-22T02:18:00;28.58;;;7.43;;
41667;SDS011;27356;50.920;5.350;2023-06-22T02:20:26;21.75;;;6.53;;
41667;SDS011;27356;50.920;5.350;2023-06-22T02:22:52;32.90;;;8.13;;
41667;SDS011;27356;50.920;5.350;2023-06-22T02:25:18;30.95;;;7.28;;
41667;SDS011;27356;50.920;5.350;2023-06-22T02:27:44;23.52;;;7.43;;
41667;SDS011;27356;50.920;5.350;2023-06-22T02:30:12;24.08;;;7.63;;
41667;SDS011;27356;50.920;5.350;2023-06-22T02:32:40;31.38;;;6.93;;
41667;SDS011;27356;50.920;5.350;2023-06-22T02:35:07;22.67;;;7.28;;
41667;SDS011;27356;50.920;5.350;2023-06-22T02:37:35;22.30;;;6.68;;
41667;SDS011;27356;50.920;5.350;2023-06-22T02:40:04;21.83;;;7.65;;
41667;SDS011;27356;50.920;5.350;2023-06-22T02:42:32;18.30;;;6.78;;
41667;SDS011;27356;50.920;5.350;2023-06-22T02:44:58;19.27;;;7.38;;
41667;SDS011;27356;50.920;5.350;2023-06-22T02:47:24;25.02;;;8.25;;
41667;SDS011;27356;50.920;5.350;2023-06-22T02:49:51;22.63;;;8.77;;
41667;SDS011;27356;50.920;5.350;2023-06-22T02:52:16;16.45;;;7.55;;
41667;SDS011;27356;50.920;5.350;2023-06-22T02:54:42;21.45;;;7.30;;
41667;SDS011;27356;50.920;5.350;2023-06-22T02:57:11;16.13;;;7.53;;
41667;SDS011;27356;50.920;5.350;2023-06-22T02:59:41;17.58;;;8.07;;
41667;SDS011;27356;50.920;5.350;2023-06-22T03:02:08;17.00;;;7.72;;
41667;SDS011;27356;50.920;5.350;2023-06-22T03:04:34;17.58;;;8.18;;
41667;SDS011;27356;50.920;5.350;2023-06-22T03:07:00;15.10;;;7.65;;
41667;SDS011;27356;50.920;5.350;2023-06-22T03:09:27;17.45;;;7.95;;
41667;SDS011;27356;50.920;5.350;2023-06-22T03:11:53;17.33;;;7.55;;
41667;SDS011;27356;50.920;5.350;2023-06-22T03:14:20;13.32;;;7.75;;
41667;SDS011;27356;50.920;5.350;2023-06-22T03:16:46;17.15;;;7.72;;
41667;SDS011;27356;50.920;5.350;2023-06-22T03:19:11;17.52;;;8.75;;
41667;SDS011;27356;50.920;5.350;2023-06-22T03:21:37;15.77;;;8.35;;
41667;SDS011;27356;50.920;5.350;2023-06-22T03:24:04;13.57;;;9.40;;
41667;SDS011;27356;50.920;5.350;2023-06-22T03:26:30;14.50;;;9.40;;
41667;SDS011;27356;50.920;5.350;2023-06-22T03:28:56;17.75;;;9.63;;
41667;SDS011;27356;50.920;5.350;2023-06-22T03:31:22;16.55;;;10.43;;
41667;SDS011;27356;50.920;5.350;2023-06-22T03:33:49;14.88;;;9.93;;
41667;SDS011;27356;50.920;5.350;2023-06-22T03:36:16;15.50;;;10.65;;
41667;SDS011;27356;50.920;5.350;2023-06-22T03:38:46;14.13;;;8.68;;
41667;SDS011;27356;50.920;5.350;2023-06-22T03:41:12;13.00;;;9.35;;
41667;SDS011;27356;50.920;5.350;2023-06-22T03:43:38;14.60;;;9.40;;
41667;SDS011;27356;50.920;5.350;2023-06-22T03:46:04;13.70;;;8.63;;
41667;SDS011;27356;50.920;5.350;2023-06-22T03:54:41;15.82;;;9.68;;
41667;SDS011;27356;50.920;5.350;2023-06-22T03:57:06;10.88;;;7.85;;
41667;SDS011;27356;50.920;5.350;2023-06-22T03:59:32;17.90;;;8.80;;
41667;SDS011;27356;50.920;5.350;2023-06-22T04:01:58;12.55;;;8.27;;
41667;SDS011;27356;50.920;5.350;2023-06-22T04:04:24;12.95;;;8.95;;
41667;SDS011;27356;50.920;5.350;2023-06-22T04:06:49;14.85;;;8.95;;
41667;SDS011;27356;50.920;5.350;2023-06-22T04:09:15;10.82;;;7.53;;
41667;SDS011;27356;50.920;5.350;2023-06-22T04:11:41;14.02;;;8.98;;
41667;SDS011;27356;50.920;5.350;2023-06-22T04:14:07;17.42;;;10.10;;
41667;SDS011;27356;50.920;5.350;2023-06-22T04:16:32;20.17;;;10.48;;
41667;SDS011;27356;50.920;5.350;2023-06-22T04:18:58;16.77;;;10.40;;
41667;SDS011;27356;50.920;5.350;2023-06-22T04:21:24;13.68;;;9.80;;
41667;SDS011;27356;50.920;5.350;2023-06-22T04:23:50;17.90;;;11.55;;
41667;SDS011;27356;50.920;5.350;2023-06-22T04:26:15;11.48;;;9.15;;
41667;SDS011;27356;50.920;5.350;2023-06-22T04:28:41;14.07;;;10.65;;
41667;SDS011;27356;50.920;5.350;2023-06-22T04:31:07;18.75;;;12.73;;
41667;SDS011;27356;50.920;5.350;2023-06-22T04:33:33;17.75;;;10.90;;
41667;SDS011;27356;50.920;5.350;2023-06-22T04:35:58;15.35;;;11.63;;
41667;SDS011;27356;50.920;5.350;2023-06-22T04:38:28;16.33;;;12.00;;
41667;SDS011;27356;50.920;5.350;2023-06-22T04:40:58;16.70;;;11.65;;
41667;SDS011;27356;50.920;5.350;2023-06-22T04:43:26;16.75;;;11.90;;
41667;SDS011;27356;50.920;5.350;2023-06-22T04:45:55;16.33;;;12.60;;
41667;SDS011;27356;50.920;5.350;2023-06-22T04:48:21;15.88;;;13.10;;
41667;SDS011;27356;50.920;5.350;2023-06-22T04:50:47;19.95;;;13.65;;
41667;SDS011;27356;50.920;5.350;2023-06-22T04:53:13;19.52;;;14.13;;
41667;SDS011;27356;50.920;5.350;2023-06-22T04:55:39;23.50;;;15.93;;
41667;SDS011;27356;50.920;5.350;2023-06-22T04:58:07;26.50;;;18.95;;
41667;SDS011;27356;50.920;5.350;2023-06-22T05:00:33;22.77;;;17.73;;
41667;SDS011;27356;50.920;5.350;2023-06-22T05:03:01;21.83;;;16.13;;
41667;SDS011;27356;50.920;5.350;2023-06-22T05:05:28;20.92;;;14.63;;
41667;SDS011;27356;50.920;5.350;2023-06-22T05:07:55;22.98;;;16.75;;
41667;SDS011;27356;50.920;5.350;2023-06-22T05:10:25;31.20;;;18.77;;
41667;SDS011;27356;50.920;5.350;2023-06-22T05:12:51;28.67;;;20.17;;
41667;SDS011;27356;50.920;5.350;2023-06-22T05:15:17;27.38;;;20.23;;
41667;SDS011;27356;50.920;5.350;2023-06-22T05:17:44;27.83;;;20.15;;
41667;SDS011;27356;50.920;5.350;2023-06-22T05:20:10;34.25;;;22.42;;
41667;SDS011;27356;50.920;5.350;2023-06-22T05:22:37;28.40;;;20.63;;
41667;SDS011;27356;50.920;5.350;2023-06-22T05:25:05;33.13;;;21.58;;
41667;SDS011;27356;50.920;5.350;2023-06-22T05:27:33;32.63;;;21.77;;
41667;SDS011;27356;50.920;5.350;2023-06-22T05:30:04;34.58;;;21.83;;
41667;SDS011;27356;50.920;5.350;2023-06-22T05:32:32;31.75;;;21.02;;
41667;SDS011;27356;50.920;5.350;2023-06-22T05:34:58;23.55;;;18.10;;
41667;SDS011;27356;50.920;5.350;2023-06-22T05:37:24;30.75;;;19.17;;
41667;SDS011;27356;50.920;5.350;2023-06-22T05:39:51;26.15;;;17.98;;
41667;SDS011;27356;50.920;5.350;2023-06-22T05:42:17;32.42;;;18.60;;
41667;SDS011;27356;50.920;5.350;2023-06-22T05:44:42;27.92;;;17.50;;
41667;SDS011;27356;50.920;5.350;2023-06-22T05:47:08;27.20;;;18.92;;
41667;SDS011;27356;50.920;5.350;2023-06-22T05:49:34;26.60;;;19.77;;
41667;SDS011;27356;50.920;5.350;2023-06-22T05:51:59;23.92;;;17.65;;
41667;SDS011;27356;50.920;5.350;2023-06-22T05:54:27;23.15;;;16.75;;
41667;SDS011;27356;50.920;5.350;2023-06-22T05:56:53;28.70;;;18.38;;
41667;SDS011;27356;50.920;5.350;2023-06-22T05:59:19;23.63;;;17.55;;
41667;SDS011;27356;50.920;5.350;2023-06-22T06:01:44;26.08;;;17.90;;
41667;SDS011;27356;50.920;5.350;2023-06-22T06:04:15;23.38;;;16.70;;
41667;SDS011;27356;50.920;5.350;2023-06-22T06:06:44;27.75;;;16.73;;
41667;SDS011;27356;50.920;5.350;2023-06-22T06:09:12;22.35;;;17.13;;
41667;SDS011;27356;50.920;5.350;2023-06-22T06:11:39;20.73;;;16.58;;
41667;SDS011;27356;50.920;5.350;2023-06-22T06:14:08;21.63;;;16.33;;
41667;SDS011;27356;50.920;5.350;2023-06-22T06:16:34;21.85;;;16.00;;
41667;SDS011;27356;50.920;5.350;2023-06-22T06:18:59;19.08;;;15.73;;
41667;SDS011;27356;50.920;5.350;2023-06-22T06:21:25;21.08;;;15.90;;
41667;SDS011;27356;50.920;5.350;2023-06-22T06:23:51;19.45;;;15.90;;
41667;SDS011;27356;50.920;5.350;2023-06-22T06:26:18;24.15;;;16.65;;
41667;SDS011;27356;50.920;5.350;2023-06-22T06:28:53;22.35;;;16.00;;
41667;SDS011;27356;50.920;5.350;2023-06-22T06:31:19;21.50;;;15.68;;
41667;SDS011;27356;50.920;5.350;2023-06-22T06:33:46;20.13;;;16.35;;
41667;SDS011;27356;50.920;5.350;2023-06-22T06:36:11;20.35;;;16.27;;
41667;SDS011;27356;50.920;5.350;2023-06-22T06:38:37;22.13;;;16.92;;
41667;SDS011;27356;50.920;5.350;2023-06-22T06:41:03;22.05;;;16.10;;
41667;SDS011;27356;50.920;5.350;2023-06-22T06:43:29;24.67;;;15.85;;
41667;SDS011;27356;50.920;5.350;2023-06-22T06:45:54;21.33;;;15.88;;
41667;SDS011;27356;50.920;5.350;2023-06-22T06:48:20;20.05;;;15.60;;
41667;SDS011;27356;50.920;5.350;2023-06-22T06:50:46;21.58;;;16.35;;
41667;SDS011;27356;50.920;5.350;2023-06-22T06:53:12;18.73;;;15.82;;
41667;SDS011;27356;50.920;5.350;2023-06-22T06:55:38;18.73;;;15.80;;
41667;SDS011;27356;50.920;5.350;2023-06-22T06:58:04;20.73;;;15.85;;
41667;SDS011;27356;50.920;5.350;2023-06-22T07:00:32;18.77;;;14.40;;
41667;SDS011;27356;50.920;5.350;2023-06-22T07:02:58;19.65;;;15.55;;
41667;SDS011;27356;50.920;5.350;2023-06-22T07:05:24;16.88;;;14.25;;
41667;SDS011;27356;50.920;5.350;2023-06-22T07:07:49;18.63;;;13.63;;
41667;SDS011;27356;50.920;5.350;2023-06-22T07:10:15;16.08;;;12.85;;
41667;SDS011;27356;50.920;5.350;2023-06-22T07:12:41;14.75;;;12.25;;
41667;SDS011;27356;50.920;5.350;2023-06-22T07:15:08;13.32;;;11.18;;
41667;SDS011;27356;50.920;5.350;2023-06-22T07:17:35;13.32;;;11.77;;
41667;SDS011;27356;50.920;5.350;2023-06-22T07:20:02;13.90;;;11.50;;
41667;SDS011;27356;50.920;5.350;2023-06-22T07:22:35;14.30;;;10.38;;
41667;SDS011;27356;50.920;5.350;2023-06-22T07:25:01;13.90;;;10.93;;
41667;SDS011;27356;50.920;5.350;2023-06-22T07:27:34;13.13;;;10.63;;
41667;SDS011;27356;50.920;5.350;2023-06-22T07:30:32;14.85;;;11.07;;
41667;SDS011;27356;50.920;5.350;2023-06-22T07:32:59;15.55;;;11.55;;
41667;SDS011;27356;50.920;5.350;2023-06-22T07:35:32;19.00;;;12.73;;
41667;SDS011;27356;50.920;5.350;2023-06-22T07:37:58;16.65;;;12.40;;
41667;SDS011;27356;50.920;5.350;2023-06-22T07:40:24;15.00;;;12.75;;
41667;SDS011;27356;50.920;5.350;2023-06-22T07:42:51;17.70;;;13.52;;
41667;SDS011;27356;50.920;5.350;2023-06-22T07:45:18;15.75;;;13.65;;
41667;SDS011;27356;50.920;5.350;2023-06-22T07:47:44;20.67;;;14.75;;
41667;SDS011;27356;50.920;5.350;2023-06-22T07:50:09;18.17;;;13.65;;
41667;SDS011;27356;50.920;5.350;2023-06-22T07:52:35;19.17;;;13.88;;
41667;SDS011;27356;50.920;5.350;2023-06-22T07:55:01;16.27;;;13.88;;
41667;SDS011;27356;50.920;5.350;2023-06-22T07:57:27;18.80;;;13.93;;
41667;SDS011;27356;50.920;5.350;2023-06-22T08:00:02;18.25;;;14.43;;
41667;SDS011;27356;50.920;5.350;2023-06-22T08:02:37;19.73;;;14.07;;
41667;SDS011;27356;50.920;5.350;2023-06-22T08:05:02;17.17;;;14.27;;
41667;SDS011;27356;50.920;5.350;2023-06-22T08:07:29;20.08;;;14.88;;
41667;SDS011;27356;50.920;5.350;2023-06-22T08:09:58;16.67;;;12.90;;
41667;SDS011;27356;50.920;5.350;2023-06-22T08:12:23;17.80;;;14.38;;
41667;SDS011;27356;50.920;5.350;2023-06-22T08:14:49;18.00;;;14.07;;
41667;SDS011;27356;50.920;5.350;2023-06-22T08:17:15;17.52;;;12.57;;
41667;SDS011;27356;50.920;5.350;2023-06-22T08:19:41;12.32;;;11.10;;
41667;SDS011;27356;50.920;5.350;2023-06-22T08:22:07;17.10;;;12.27;;
41667;SDS011;27356;50.920;5.350;2023-06-22T08:24:32;19.42;;;12.25;;
41667;SDS011;27356;50.920;5.350;2023-06-22T08:26:58;18.05;;;13.15;;
41667;SDS011;27356;50.920;5.350;2023-06-22T08:29:24;16.83;;;11.75;;
41667;SDS011;27356;50.920;5.350;2023-06-22T08:31:50;14.10;;;11.85;;
41667;SDS011;27356;50.920;5.350;2023-06-22T08:34:16;16.85;;;12.73;;
41667;SDS011;27356;50.920;5.350;2023-06-22T08:36:47;13.75;;;12.32;;
41667;SDS011;27356;50.920;5.350;2023-06-22T08:39:16;13.63;;;11.63;;
41667;SDS011;27356;50.920;5.350;2023-06-22T08:41:43;18.70;;;12.65;;
41667;SDS011;27356;50.920;5.350;2023-06-22T08:44:10;15.55;;;11.68;;
41667;SDS011;27356;50.920;5.350;2023-06-22T08:46:35;16.40;;;12.80;;
41667;SDS011;27356;50.920;5.350;2023-06-22T08:49:03;15.98;;;12.10;;
41667;SDS011;27356;50.920;5.350;2023-06-22T08:51:29;18.15;;;12.45;;
41667;SDS011;27356;50.920;5.350;2023-06-22T08:53:55;13.20;;;11.27;;
41667;SDS011;27356;50.920;5.350;2023-06-22T08:56:21;16.75;;;12.15;;
41667;SDS011;27356;50.920;5.350;2023-06-22T08:58:47;15.65;;;12.90;;
41667;SDS011;27356;50.920;5.350;2023-06-22T09:01:12;14.88;;;12.95;;
41667;SDS011;27356;50.920;5.350;2023-06-22T09:03:40;17.92;;;13.60;;
41667;SDS011;27356;50.920;5.350;2023-06-22T09:06:06;16.65;;;13.30;;
41667;SDS011;27356;50.920;5.350;2023-06-22T09:08:34;18.88;;;13.00;;
41667;SDS011;27356;50.920;5.350;2023-06-22T09:11:00;18.48;;;14.70;;
41667;SDS011;27356;50.920;5.350;2023-06-22T09:13:27;16.23;;;13.75;;
41667;SDS011;27356;50.920;5.350;2023-06-22T09:15:55;20.05;;;13.95;;
41667;SDS011;27356;50.920;5.350;2023-06-22T09:18:21;17.77;;;14.65;;
41667;SDS011;27356;50.920;5.350;2023-06-22T09:20:47;18.80;;;14.23;;
41667;SDS011;27356;50.920;5.350;2023-06-22T09:23:13;17.05;;;13.70;;
41667;SDS011;27356;50.920;5.350;2023-06-22T09:25:39;14.18;;;12.38;;
41667;SDS011;27356;50.920;5.350;2023-06-22T09:28:06;15.55;;;13.85;;
41667;SDS011;27356;50.920;5.350;2023-06-22T09:30:31;18.92;;;14.32;;
41667;SDS011;27356;50.920;5.350;2023-06-22T09:32:57;16.30;;;13.70;;
41667;SDS011;27356;50.920;5.350;2023-06-22T09:35:23;17.95;;;14.05;;
41667;SDS011;27356;50.920;5.350;2023-06-22T09:37:49;21.48;;;13.88;;
41667;SDS011;27356;50.920;5.350;2023-06-22T09:40:14;16.15;;;14.13;;
41667;SDS011;27356;50.920;5.350;2023-06-22T09:42:42;15.68;;;13.73;;
41667;SDS011;27356;50.920;5.350;2023-06-22T09:45:08;20.58;;;13.82;;
41667;SDS011;27356;50.920;5.350;2023-06-22T09:47:34;18.88;;;14.75;;
41667;SDS011;27356;50.920;5.350;2023-06-22T09:50:00;18.48;;;15.43;;
41667;SDS011;27356;50.920;5.350;2023-06-22T09:52:26;23.98;;;15.88;;
41667;SDS011;27356;50.920;5.350;2023-06-22T09:54:53;20.15;;;15.57;;
41667;SDS011;27356;50.920;5.350;2023-06-22T09:57:18;21.95;;;16.52;;
41667;SDS011;27356;50.920;5.350;2023-06-22T09:59:44;20.15;;;16.90;;
41667;SDS011;27356;50.920;5.350;2023-06-22T10:02:10;22.83;;;17.10;;
41667;SDS011;27356;50.920;5.350;2023-06-22T10:04:36;20.35;;;17.63;;
41667;SDS011;27356;50.920;5.350;2023-06-22T10:07:02;22.40;;;17.80;;
41667;SDS011;27356;50.920;5.350;2023-06-22T10:09:28;24.17;;;19.23;;
41667;SDS011;27356;50.920;5.350;2023-06-22T10:11:54;25.92;;;19.63;;
41667;SDS011;27356;50.920;5.350;2023-06-22T10:14:20;26.70;;;21.70;;
41667;SDS011;27356;50.920;5.350;2023-06-22T10:16:46;25.27;;;21.83;;
41667;SDS011;27356;50.920;5.350;2023-06-22T10:19:13;32.85;;;22.45;;
41667;SDS011;27356;50.920;5.350;2023-06-22T10:21:39;36.40;;;24.58;;
41667;SDS011;27356;50.920;5.350;2023-06-22T10:24:05;43.85;;;24.98;;
41667;SDS011;27356;50.920;5.350;2023-06-22T10:26:34;37.95;;;25.90;;
41667;SDS011;27356;50.920;5.350;2023-06-22T10:29:01;33.78;;;26.83;;
41667;SDS011;27356;50.920;5.350;2023-06-22T10:31:28;38.47;;;27.38;;
41667;SDS011;27356;50.920;5.350;2023-06-22T10:33:54;35.55;;;26.77;;
41667;SDS011;27356;50.920;5.350;2023-06-22T10:36:21;37.35;;;27.70;;
41667;SDS011;27356;50.920;5.350;2023-06-22T10:38:47;39.25;;;29.33;;
41667;SDS011;27356;50.920;5.350;2023-06-22T10:41:14;42.22;;;29.42;;
41667;SDS011;27356;50.920;5.350;2023-06-22T10:43:40;45.53;;;31.05;;
41667;SDS011;27356;50.920;5.350;2023-06-22T10:46:06;38.17;;;29.90;;
41667;SDS011;27356;50.920;5.350;2023-06-22T10:48:32;37.33;;;29.55;;
41667;SDS011;27356;50.920;5.350;2023-06-22T10:50:58;40.10;;;29.98;;
41667;SDS011;27356;50.920;5.350;2023-06-22T10:53:24;36.83;;;29.05;;
41667;SDS011;27356;50.920;5.350;2023-06-22T10:55:49;39.22;;;29.35;;
41667;SDS011;27356;50.920;5.350;2023-06-22T10:58:17;36.60;;;29.08;;
41667;SDS011;27356;50.920;5.350;2023-06-22T11:00:44;40.33;;;27.98;;
41667;SDS011;27356;50.920;5.350;2023-06-22T11:03:10;32.28;;;26.77;;
41667;SDS011;27356;50.920;5.350;2023-06-22T11:05:36;33.50;;;27.75;;
41667;SDS011;27356;50.920;5.350;2023-06-22T11:08:01;36.78;;;27.60;;
41667;SDS011;27356;50.920;5.350;2023-06-22T11:10:27;32.60;;;25.77;;
41667;SDS011;27356;50.920;5.350;2023-06-22T11:12:53;35.42;;;26.33;;
41667;SDS011;27356;50.920;5.350;2023-06-22T11:15:20;30.83;;;25.70;;
41667;SDS011;27356;50.920;5.350;2023-06-22T11:17:46;36.92;;;30.20;;
41667;SDS011;27356;50.920;5.350;2023-06-22T11:20:12;37.38;;;27.10;;
41667;SDS011;27356;50.920;5.350;2023-06-22T11:22:38;33.88;;;25.55;;
41667;SDS011;27356;50.920;5.350;2023-06-22T11:25:05;28.63;;;25.15;;
41667;SDS011;27356;50.920;5.350;2023-06-22T11:27:31;28.13;;;23.35;;
41667;SDS011;27356;50.920;5.350;2023-06-22T11:29:57;27.95;;;23.92;;
41667;SDS011;27356;50.920;5.350;2023-06-22T11:32:23;28.83;;;23.73;;
41667;SDS011;27356;50.920;5.350;2023-06-22T11:34:49;30.88;;;25.40;;
41667;SDS011;27356;50.920;5.350;2023-06-22T11:37:15;28.52;;;24.40;;
41667;SDS011;27356;50.920;5.350;2023-06-22T11:39:41;27.95;;;22.60;;
41667;SDS011;27356;50.920;5.350;2023-06-22T11:42:07;30.27;;;23.30;;
41667;SDS011;27356;50.920;5.350;2023-06-22T11:44:34;25.23;;;22.50;;
41667;SDS011;27356;50.920;5.350;2023-06-22T11:47:00;29.13;;;21.70;;
41667;SDS011;27356;50.920;5.350;2023-06-22T11:49:29;25.88;;;21.85;;
41667;SDS011;27356;50.920;5.350;2023-06-22T11:51:55;28.88;;;23.02;;
41667;SDS011;27356;50.920;5.350;2023-06-22T11:54:21;28.65;;;23.08;;
41667;SDS011;27356;50.920;5.350;2023-06-22T11:56:47;26.88;;;22.98;;
41667;SDS011;27356;50.920;5.350;2023-06-22T11:59:13;30.80;;;23.05;;
41667;SDS011;27356;50.920;5.350;2023-06-22T12:01:38;29.17;;;24.38;;
41667;SDS011;27356;50.920;5.350;2023-06-22T12:04:04;30.75;;;25.52;;
41667;SDS011;27356;50.920;5.350;2023-06-22T12:06:31;32.88;;;25.45;;
41667;SDS011;27356;50.920;5.350;2023-06-22T12:08:58;33.20;;;26.58;;
41667;SDS011;27356;50.920;5.350;2023-06-22T12:11:24;33.13;;;25.33;;
41667;SDS011;27356;50.920;5.350;2023-06-22T12:13:49;32.58;;;24.63;;
41667;SDS011;27356;50.920;5.350;2023-06-22T12:16:15;29.00;;;23.88;;
41667;SDS011;27356;50.920;5.350;2023-06-22T12:18:41;33.10;;;27.27;;
41667;SDS011;27356;50.920;5.350;2023-06-22T12:21:07;34.72;;;28.10;;
41667;SDS011;27356;50.920;5.350;2023-06-22T12:23:33;32.92;;;26.08;;
41667;SDS011;27356;50.920;5.350;2023-06-22T12:25:59;34.10;;;27.42;;
41667;SDS011;27356;50.920;5.350;2023-06-22T12:28:26;35.17;;;27.30;;
41667;SDS011;27356;50.920;5.350;2023-06-22T12:30:52;35.28;;;28.50;;
41667;SDS011;27356;50.920;5.350;2023-06-22T12:33:18;37.35;;;28.70;;
41667;SDS011;27356;50.920;5.350;2023-06-22T12:35:43;40.47;;;29.00;;
41667;SDS011;27356;50.920;5.350;2023-06-22T12:38:10;36.65;;;29.20;;
41667;SDS011;27356;50.920;5.350;2023-06-22T12:40:36;35.50;;;28.23;;
41667;SDS011;27356;50.920;5.350;2023-06-22T12:43:02;36.28;;;29.48;;
41667;SDS011;27356;50.920;5.350;2023-06-22T12:45:28;34.60;;;27.48;;
41667;SDS011;27356;50.920;5.350;2023-06-22T12:47:58;35.72;;;28.35;;
41667;SDS011;27356;50.920;5.350;2023-06-22T12:50:24;39.78;;;30.45;;
41667;SDS011;27356;50.920;5.350;2023-06-22T12:52:50;38.03;;;29.65;;
41667;SDS011;27356;50.920;5.350;2023-06-22T12:55:16;36.95;;;29.55;;
41667;SDS011;27356;50.920;5.350;2023-06-22T12:57:42;40.97;;;31.38;;
41667;SDS011;27356;50.920;5.350;2023-06-22T13:00:08;35.80;;;29.30;;
41667;SDS011;27356;50.920;5.350;2023-06-22T13:02:35;41.20;;;31.63;;
41667;SDS011;27356;50.920;5.350;2023-06-22T13:05:02;38.63;;;31.63;;
41667;SDS011;27356;50.920;5.350;2023-06-22T13:07:30;42.55;;;32.80;;
41667;SDS011;27356;50.920;5.350;2023-06-22T13:09:56;43.80;;;35.22;;
41667;SDS011;27356;50.920;5.350;2023-06-22T13:12:21;47.15;;;34.88;;
41667;SDS011;27356;50.920;5.350;2023-06-22T13:14:48;46.30;;;35.70;;
41667;SDS011;27356;50.920;5.350;2023-06-22T13:17:14;48.83;;;34.45;;
41667;SDS011;27356;50.920;5.350;2023-06-22T13:19:46;46.28;;;35.50;;
41667;SDS011;27356;50.920;5.350;2023-06-22T13:25:10;47.40;;;35.40;;
41667;SDS011;27356;50.920;5.350;2023-06-22T13:27:40;51.75;;;33.83;;
41667;SDS011;27356;50.920;5.350;2023-06-22T13:30:07;50.10;;;34.55;;
41667;SDS011;27356;50.920;5.350;2023-06-22T13:32:34;52.80;;;34.88;;
41667;SDS011;27356;50.920;5.350;2023-06-22T13:34:59;51.55;;;33.08;;
41667;SDS011;27356;50.920;5.350;2023-06-22T13:37:25;42.67;;;30.10;;
41667;SDS011;27356;50.920;5.350;2023-06-22T13:39:52;39.40;;;29.38;;
41667;SDS011;27356;50.920;5.350;2023-06-22T13:42:18;48.25;;;30.83;;
41667;SDS011;27356;50.920;5.350;2023-06-22T13:44:44;40.58;;;29.02;;
41667;SDS011;27356;50.920;5.350;2023-06-22T13:47:09;37.88;;;27.85;;
41667;SDS011;27356;50.920;5.350;2023-06-22T13:49:35;38.97;;;27.08;;
41667;SDS011;27356;50.920;5.350;2023-06-22T13:52:01;36.65;;;27.15;;
41667;SDS011;27356;50.920;5.350;2023-06-22T13:54:28;39.70;;;26.33;;
41667;SDS011;27356;50.920;5.350;2023-06-22T13:56:54;44.42;;;28.50;;
41667;SDS011;27356;50.920;5.350;2023-06-22T13:59:20;43.03;;;28.15;;
41667;SDS011;27356;50.920;5.350;2023-06-22T14:01:46;42.05;;;27.08;;
41667;SDS011;27356;50.920;5.350;2023-06-22T14:04:12;51.42;;;30.08;;
41667;SDS011;27356;50.920;5.350;2023-06-22T14:06:38;40.03;;;28.67;;
41667;SDS011;27356;50.920;5.350;2023-06-22T14:09:04;45.47;;;31.80;;
41667;SDS011;27356;50.920;5.350;2023-06-22T14:11:30;48.65;;;30.92;;
41667;SDS011;27356;50.920;5.350;2023-06-22T14:13:55;53.58;;;30.98;;
41667;SDS011;27356;50.920;5.350;2023-06-22T14:16:21;51.05;;;32.78;;
41667;SDS011;27356;50.920;5.350;2023-06-22T14:18:47;53.35;;;34.15;;
41667;SDS011;27356;50.920;5.350;2023-06-22T14:21:13;46.25;;;33.08;;
41667;SDS011;27356;50.920;5.350;2023-06-22T14:23:39;49.22;;;32.25;;
41667;SDS011;27356;50.920;5.350;2023-06-22T14:26:04;49.00;;;33.80;;
41667;SDS011;27356;50.920;5.350;2023-06-22T14:28:30;51.42;;;34.83;;
41667;SDS011;27356;50.920;5.350;2023-06-22T14:30:56;51.78;;;34.03;;
41667;SDS011;27356;50.920;5.350;2023-06-22T14:33:22;54.85;;;35.53;;
41667;SDS011;27356;50.920;5.350;2023-06-22T14:35:48;48.03;;;34.58;;
41667;SDS011;27356;50.920;5.350;2023-06-22T14:38:14;54.28;;;35.95;;
41667;SDS011;27356;50.920;5.350;2023-06-22T14:40:40;52.05;;;35.92;;